Time;durP1;ratioP1;P1;durP2;ratioP2;P2;SDS_P1;SDS_P2;PMS_P1;PMS_P2;Temp;Humidity;BMP_temperature;BMP_pressure;BME280_temperature;BME280_humidity;BME280_pressure;Samples;Min_cycle;Max_cycle;Signal;HPM_P1;HPM_P2
2022/07/11 00:02:21;;;;;;;;;4.00;4.00;;;;;20.95;48.53;101408.78;6335945;22;45227;-72
2022/07/11 00:04:47;;;;;;;;;2.50;2.50;;;;;20.91;48.82;101398.41;6334533;22;45582;-66
2022/07/11 00:07:13;;;;;;;;;3.00;2.50;;;;;20.86;48.63;101393.41;6336411;22;45264;-71
2022/07/11 00:09:38;;;;;;;;;3.00;3.00;;;;;20.89;48.55;101395.84;6335442;22;45869;-74
2022/07/11 00:12:05;;;;;;;;;2.50;2.50;;;;;20.87;48.82;101397.78;6335133;22;45292;-69
2022/07/11 00:14:31;;;;;;;;;3.75;3.75;;;;;20.86;48.80;101404.94;6306501;22;45318;-64
2022/07/11 00:16:56;;;;;;;;;4.00;2.25;;;;;20.83;49.24;101396.28;6334397;22;45431;-67
2022/07/11 00:19:22;;;;;;;;;3.50;3.50;;;;;20.82;49.05;101398.09;6335257;22;45393;-63
2022/07/11 00:21:48;;;;;;;;;2.25;2.25;;;;;20.81;48.99;101400.91;6336122;22;45382;-64
2022/07/11 00:24:14;;;;;;;;;2.50;2.50;;;;;20.76;48.97;101398.50;6338758;22;45409;-68
2022/07/11 00:26:39;;;;;;;;;4.25;4.00;;;;;20.74;49.24;101395.06;6338761;22;45214;-65
2022/07/11 00:29:05;;;;;;;;;2.00;2.00;;;;;20.74;49.44;101405.78;6341444;22;45300;-66
2022/07/11 00:31:31;;;;;;;;;3.00;1.00;;;;;20.71;49.15;101400.63;6341194;22;45328;-65
2022/07/11 00:33:57;;;;;;;;;2.50;2.50;;;;;20.68;49.20;101404.41;6309803;22;45360;-64
2022/07/11 00:36:23;;;;;;;;;2.50;2.50;;;;;20.56;49.38;101382.03;6336016;22;45553;-66
2022/07/11 00:38:49;;;;;;;;;4.50;3.50;;;;;20.61;49.13;101400.41;6336179;22;46716;-66
2022/07/11 00:41:14;;;;;;;;;3.00;3.00;;;;;20.61;48.99;101399.56;6336805;22;45119;-63
2022/07/11 00:43:40;;;;;;;;;2.00;2.00;;;;;20.61;49.46;101399.56;6336970;22;45176;-62
2022/07/11 00:46:08;;;;;;;;;2.00;2.00;;;;;20.58;49.40;101403.31;6336264;22;45274;-64
2022/07/11 00:48:35;;;;;;;;;3.00;2.00;;;;;20.56;49.70;101390.06;6341695;22;45333;-75
2022/07/11 00:51:02;;;;;;;;;1.25;1.25;;;;;20.54;49.55;101391.13;6337009;22;45375;-72
2022/07/11 00:53:29;;;;;;;;;2.00;2.00;;;;;20.51;49.73;101383.31;6333312;22;45299;-74
2022/07/11 00:55:56;;;;;;;;;2.00;2.00;;;;;20.51;49.51;101394.00;6333453;22;45574;-75
2022/07/11 00:58:22;;;;;;;;;4.00;3.00;;;;;20.47;49.95;101388.03;6334133;22;45419;-72
2022/07/11 01:00:48;;;;;;;;;2.50;2.00;;;;;20.41;49.32;101380.44;6335724;22;45384;-76
2022/07/11 01:03:13;;;;;;;;;2.00;2.00;;;;;20.40;50.06;101379.56;6335636;22;45279;-76
2022/07/11 01:05:39;;;;;;;;;2.50;2.50;;;;;20.41;49.69;101391.97;6336231;22;45298;-75
2022/07/11 01:08:04;;;;;;;;;2.00;2.00;;;;;20.38;49.89;101388.69;6335552;22;45786;-74
2022/07/11 01:10:30;;;;;;;;;2.00;2.00;;;;;20.37;50.02;101384.28;6336088;22;45352;-76
2022/07/11 01:12:55;;;;;;;;;2.00;2.00;;;;;20.36;50.08;101382.59;6336056;22;45211;-75
2022/07/11 01:15:21;;;;;;;;;2.00;2.00;;;;;20.35;49.88;101378.19;6335861;22;45572;-72
2022/07/11 01:17:46;;;;;;;;;3.25;3.25;;;;;20.34;50.12;101379.16;6336151;22;45391;-75
2022/07/11 01:20:12;;;;;;;;;2.00;2.00;;;;;20.32;49.94;101389.09;6335267;22;45278;-75
2022/07/11 01:22:48;;;;;;;;;4.00;4.00;;;;;20.28;50.28;101375.97;6308275;22;45234;-76
2022/07/11 01:25:29;;;;;;;;;3.50;2.00;;;;;20.27;49.99;101374.25;6336659;22;45152;-77
2022/07/11 01:27:57;;;;;;;;;4.25;2.25;;;;;20.21;49.90;101363.13;6336904;22;45529;-64
2022/07/11 01:30:22;;;;;;;;;2.00;2.00;;;;;20.21;50.12;101371.13;6336362;22;45273;-61
2022/07/11 01:32:50;;;;;;;;;1.00;1.00;;;;;20.21;50.38;101372.00;6307519;22;45244;-62
2022/07/11 01:35:16;;;;;;;;;2.25;2.25;;;;;20.21;50.53;101380.00;6335770;22;45382;-62
2022/07/11 01:37:41;;;;;;;;;2.75;2.75;;;;;20.19;50.18;101383.72;6334818;22;45254;-63
2022/07/11 01:40:08;;;;;;;;;1.00;1.00;;;;;20.16;50.74;101386.63;6335094;22;45226;-62
2022/07/11 01:42:33;;;;;;;;;1.50;1.50;;;;;20.12;50.72;101384.16;6335139;22;45304;-65
2022/07/11 01:44:58;;;;;;;;;2.50;2.50;;;;;20.11;50.93;101384.25;6307233;22;45349;-64
2022/07/11 01:47:23;;;;;;;;;3.25;2.75;;;;;20.10;50.73;101378.06;6334748;22;45589;-63
2022/07/11 01:49:49;;;;;;;;;2.50;2.50;;;;;20.05;50.84;101372.19;6306534;22;56150;-67
2022/07/11 01:52:14;;;;;;;;;2.50;2.50;;;;;20.08;50.70;101379.97;6335134;22;45258;-62
2022/07/11 01:54:39;;;;;;;;;4.25;2.75;;;;;20.06;50.49;101384.56;6335341;22;45531;-62
2022/07/11 01:57:05;;;;;;;;;2.75;2.75;;;;;20.05;50.67;101382.00;6334943;22;46093;-64
2022/07/11 01:59:30;;;;;;;;;1.50;1.50;;;;;20.04;51.09;101375.81;6335450;22;45324;-63
2022/07/11 02:01:55;;;;;;;;;2.00;2.00;;;;;20.04;50.79;101380.28;6335511;22;45245;-60
2022/07/11 02:04:21;;;;;;;;;1.75;1.75;;;;;19.87;51.46;101352.03;6335506;22;45258;-65
2022/07/11 02:06:46;;;;;;;;;3.25;1.75;;;;;19.93;51.13;101371.19;6335179;22;46087;-62
2022/07/11 02:09:11;;;;;;;;;4.25;3.00;;;;;19.93;51.22;101373.84;6336026;22;45207;-73
2022/07/11 02:11:37;;;;;;;;;2.00;2.00;;;;;19.92;51.39;101372.13;6335892;22;51020;-70
2022/07/11 02:14:02;;;;;;;;;2.00;1.75;;;;;19.89;51.21;101376.81;6335644;22;45446;-69
2022/07/11 02:16:27;;;;;;;;;2.00;2.00;;;;;19.87;51.87;101379.56;6334908;22;46064;-73
2022/07/11 02:18:53;;;;;;;;;4.25;4.25;;;;;19.80;52.38;101379.13;6335597;22;45254;-67
2022/07/11 02:21:19;;;;;;;;;4.75;4.75;;;;;19.76;51.72;101371.44;6335865;22;45744;-72
2022/07/11 02:23:44;;;;;;;;;4.50;4.50;;;;;19.76;51.90;101379.44;6335830;22;45103;-71
2022/07/11 02:26:09;;;;;;;;;4.25;4.25;;;;;19.73;51.75;101384.97;6335708;22;45205;-72
2022/07/11 02:28:36;;;;;;;;;3.00;3.00;;;;;19.71;52.20;101380.59;6341888;22;45142;-70
2022/07/11 02:31:02;;;;;;;;;3.00;3.00;;;;;19.66;52.01;101371.19;6341836;22;45163;-73
2022/07/11 02:33:28;;;;;;;;;3.00;3.00;;;;;19.64;52.07;101367.78;6337002;22;45361;-68
2022/07/11 02:35:53;;;;;;;;;3.00;3.00;;;;;19.63;52.24;101372.25;6336417;22;45347;-70
2022/07/11 02:38:19;;;;;;;;;3.25;3.25;;;;;19.55;52.11;101358.56;6336689;22;45230;-77
2022/07/11 02:40:45;;;;;;;;;3.00;3.00;;;;;19.63;52.01;101382.06;6335868;22;45246;-75
2022/07/11 02:43:10;;;;;;;;;3.50;3.50;;;;;19.62;52.13;101378.53;6336423;22;45277;-73
2022/07/11 02:45:36;;;;;;;;;2.50;2.50;;;;;19.60;52.39;101375.13;6336117;22;45248;-74
2022/07/11 02:48:01;;;;;;;;;2.00;2.00;;;;;19.60;52.26;101382.25;6336451;22;45270;-75
2022/07/11 02:50:27;;;;;;;;;3.00;3.00;;;;;19.58;52.46;101378.81;6339400;22;45446;-66
2022/07/11 02:52:52;;;;;;;;;3.00;3.00;;;;;19.55;52.23;101379.91;6341858;22;45184;-72
2022/07/11 02:55:17;;;;;;;;;3.25;3.25;;;;;19.52;52.93;101380.94;6336696;22;45158;-75
2022/07/11 02:57:43;;;;;;;;;3.25;2.75;;;;;19.50;52.95;101376.69;6338180;22;45170;-72
2022/07/11 03:00:12;;;;;;;;;5.00;2.00;;;;;19.47;53.00;101374.22;6336365;22;45235;-76
2022/07/11 03:02:37;;;;;;;;;4.00;2.75;;;;;19.44;52.84;101375.25;6336337;22;45354;-76
2022/07/11 03:05:03;;;;;;;;;4.00;4.00;;;;;19.38;53.32;101373.84;6335299;22;46017;-74
2022/07/11 03:07:29;;;;;;;;;3.25;3.25;;;;;19.37;53.26;101376.59;6307625;22;45314;-74
2022/07/11 03:09:55;;;;;;;;;4.00;4.00;;;;;19.29;53.46;101369.13;6336429;22;45282;-75
2022/07/11 03:12:20;;;;;;;;;5.00;5.00;;;;;19.30;53.31;101368.16;6336565;22;45272;-74
2022/07/11 03:14:46;;;;;;;;;4.00;4.00;;;;;19.29;53.67;101369.13;6307410;22;48242;-72
2022/07/11 03:17:11;;;;;;;;;4.75;4.75;;;;;19.19;53.59;101350.19;6335779;22;45241;-73
2022/07/11 03:19:36;;;;;;;;;3.00;3.00;;;;;19.25;53.27;101362.28;6336132;22;45800;-73
2022/07/11 03:22:03;;;;;;;;;4.50;4.50;;;;;19.25;53.68;101367.59;6335893;22;45253;-64
2022/07/11 03:24:28;;;;;;;;;4.00;4.00;;;;;19.15;53.85;101351.31;6335518;22;45163;-62
2022/07/11 03:26:53;;;;;;;;;5.00;5.00;;;;;19.16;54.37;101365.53;6335992;22;45196;-62
2022/07/11 03:29:19;;;;;;;;;4.25;4.25;;;;;19.14;54.15;101362.94;6335730;22;45233;-72
2022/07/11 03:31:44;;;;;;;;;5.75;5.75;;;;;19.10;54.14;101370.31;6336804;22;45080;-67
2022/07/11 03:34:09;;;;;;;;;4.50;4.50;;;;;19.03;54.26;101360.13;6336010;22;46338;-71
2022/07/11 03:36:35;;;;;;;;;3.75;3.75;;;;;19.01;54.70;101373.53;6308568;22;45142;-72
2022/07/11 03:39:00;;;;;;;;;5.00;5.00;;;;;18.97;54.74;101374.69;6336213;22;45191;-72
2022/07/11 03:41:25;;;;;;;;;4.50;4.50;;;;;18.95;54.46;101371.22;6337298;22;45411;-75
2022/07/11 03:43:51;;;;;;;;;5.00;5.00;;;;;18.92;54.65;101371.41;6338500;22;45386;-74
2022/07/11 03:46:16;;;;;;;;;5.00;5.00;;;;;18.80;54.52;101357.91;6344516;22;45185;-74
2022/07/11 03:48:42;;;;;;;;;4.00;4.00;;;;;18.82;55.11;101368.50;6348293;22;45104;-73
2022/07/11 03:51:07;;;;;;;;;4.00;4.00;;;;;18.81;55.03;101364.94;6336388;22;45162;-72
2022/07/11 03:53:33;;;;;;;;;5.00;5.00;;;;;18.79;55.34;101368.69;6336108;22;45969;-75
2022/07/11 03:55:59;;;;;;;;;4.75;4.75;;;;;18.69;55.84;101355.94;6308048;22;45269;-71
2022/07/11 03:58:24;;;;;;;;;5.00;3.50;;;;;18.68;55.39;101359.56;6336128;22;45310;-74
2022/07/11 04:00:50;;;;;;;;;6.00;4.50;;;;;18.72;55.17;101365.53;6335980;22;45494;-76
2022/07/11 04:03:15;;;;;;;;;5.25;4.75;;;;;18.69;55.16;101369.25;6306967;22;46872;-74
2022/07/11 04:05:40;;;;;;;;;4.50;4.00;;;;;18.72;55.39;101370.84;6335646;22;45305;-76
2022/07/11 04:08:05;;;;;;;;;4.00;4.00;;;;;18.71;55.32;101370.97;6335900;22;45625;-71
2022/07/11 04:10:31;;;;;;;;;4.25;4.25;;;;;18.71;55.29;101362.97;6335736;22;45290;-69
2022/07/11 04:12:56;;;;;;;;;6.50;5.25;;;;;18.72;55.39;101360.19;6336241;22;46068;-75
2022/07/11 04:15:22;;;;;;;;;5.00;5.00;;;;;18.77;55.31;101359.94;6336036;22;45356;-78
2022/07/11 04:17:47;;;;;;;;;4.75;4.75;;;;;18.81;55.08;101359.63;6337064;22;45353;-69
2022/07/11 04:20:13;;;;;;;;;6.00;6.00;;;;;18.85;54.94;101368.28;6337388;22;45190;-73
2022/07/11 04:22:38;;;;;;;;;8.50;7.00;;;;;18.87;55.42;101361.06;6335268;22;46285;-75
2022/07/11 04:25:04;;;;;;;;;5.25;4.75;;;;;18.94;55.01;101365.03;6335192;22;45162;-74
2022/07/11 04:27:29;;;;;;;;;4.50;4.50;;;;;18.75;55.27;101332.50;6336026;22;45166;-63
2022/07/11 04:29:55;;;;;;;;;6.00;6.00;;;;;18.98;55.00;101358.59;6308382;22;45568;-63
2022/07/11 04:32:20;;;;;;;;;6.75;5.50;;;;;19.01;55.27;101365.53;6307708;22;46569;-63
2022/07/11 04:34:46;;;;;;;;;5.75;5.75;;;;;19.01;54.75;101360.19;6335066;22;45116;-64
2022/07/11 04:37:11;;;;;;;;;5.00;5.00;;;;;19.10;55.01;101369.44;6335451;22;45221;-65
2022/07/11 04:39:36;;;;;;;;;4.00;4.00;;;;;18.96;54.72;101339.16;6335521;22;45173;-74
2022/07/11 04:42:02;;;;;;;;;7.25;5.75;;;;;19.15;54.92;101379.81;6338125;22;45197;-76
2022/07/11 04:44:28;;;;;;;;;6.00;5.75;;;;;19.09;54.47;101370.38;6337580;22;45437;-75
2022/07/11 04:46:54;;;;;;;;;5.00;5.00;;;;;19.19;54.70;101386.66;6336387;22;45239;-73
2022/07/11 04:49:19;;;;;;;;;6.50;6.50;;;;;19.14;54.90;101381.63;6335852;22;45212;-68
2022/07/11 04:51:45;;;;;;;;;7.00;5.75;;;;;19.18;54.68;101390.28;6335412;22;45821;-76
2022/07/11 04:54:10;;;;;;;;;6.00;6.00;;;;;19.15;55.29;101393.16;6335690;22;45327;-75
2022/07/11 04:56:36;;;;;;;;;6.75;6.75;;;;;19.15;54.96;101399.34;6308337;22;45239;-75
2022/07/11 04:59:02;;;;;;;;;5.25;5.25;;;;;19.14;55.31;101394.09;6336654;22;45408;-74
2022/07/11 05:01:28;;;;;;;;;7.25;6.75;;;;;19.13;55.11;101395.91;6336402;22;46150;-76
2022/07/11 05:03:54;;;;;;;;;6.00;6.00;;;;;19.30;54.92;101396.63;6335518;22;45236;-75
2022/07/11 05:06:19;;;;;;;;;7.75;7.75;;;;;19.62;54.49;101401.72;6336486;22;45352;-74
2022/07/11 05:08:45;;;;;;;;;7.00;7.00;;;;;20.02;53.52;101399.09;6335883;22;45471;-74
2022/07/11 05:11:11;;;;;;;;;3.00;3.00;;;;;20.48;52.70;101400.44;6334904;22;45955;-76
2022/07/11 05:13:37;;;;;;;;;4.00;4.00;;;;;20.90;52.19;101399.38;6335415;22;45225;-75
2022/07/11 05:16:03;;;;;;;;;6.00;6.00;;;;;21.27;50.99;101407.44;6309025;22;45359;-71
2022/07/11 05:18:28;;;;;;;;;7.50;5.00;;;;;21.61;50.28;101402.28;6335972;22;45290;-74
2022/07/11 05:20:54;;;;;;;;;8.25;6.50;;;;;21.89;49.38;101413.63;6335321;22;45821;-76
2022/07/11 05:23:19;;;;;;;;;6.75;5.25;;;;;22.18;48.74;101413.25;6334548;22;45241;-75
2022/07/11 05:25:44;;;;;;;;;7.00;6.00;;;;;22.35;48.45;101400.41;6336001;22;45277;-75
2022/07/11 05:28:09;;;;;;;;;6.75;6.75;;;;;22.56;48.00;101408.59;6335671;22;45240;-75
2022/07/11 05:30:35;;;;;;;;;4.25;4.25;;;;;22.67;47.81;101413.13;6335000;22;46368;-63
2022/07/11 05:33:00;;;;;;;;;5.25;5.25;;;;;22.81;47.17;101410.22;6335202;22;45231;-67
2022/07/11 05:35:25;;;;;;;;;2.00;2.00;;;;;22.88;47.21;101411.44;6335032;22;45636;-64
2022/07/11 05:37:52;;;;;;;;;4.75;4.75;;;;;23.03;46.72;101413.88;6306815;22;45408;-64
2022/07/11 05:40:17;;;;;;;;;5.75;5.00;;;;;23.12;46.74;101407.75;6334602;22;46996;-65
2022/07/11 05:42:43;;;;;;;;;7.25;6.00;;;;;23.16;46.36;101409.22;6335516;22;45157;-67
2022/07/11 05:45:09;;;;;;;;;5.00;5.00;;;;;23.32;46.28;101419.59;6335590;22;45724;-68
2022/07/11 05:47:34;;;;;;;;;5.00;4.25;;;;;23.39;45.72;101419.97;6335256;22;45406;-68
2022/07/11 05:50:00;;;;;;;;;5.50;5.50;;;;;23.43;45.82;101404.44;6307496;22;46257;-69
2022/07/11 05:52:25;;;;;;;;;7.25;5.00;;;;;23.45;45.87;101411.41;6334765;22;45167;-65
2022/07/11 05:54:50;;;;;;;;;4.00;3.00;;;;;23.33;45.86;101399.84;6334638;22;45127;-75
2022/07/11 05:57:16;;;;;;;;;5.00;5.00;;;;;23.30;45.87;101416.19;6335150;22;45301;-68
2022/07/11 05:59:41;;;;;;;;;16.00;16.00;;;;;23.12;46.12;101414.97;6334303;22;45341;-62
2022/07/11 06:02:07;;;;;;;;;13.50;12.50;;;;;22.92;46.12;101412.06;6335857;22;45182;-65
2022/07/11 06:04:33;;;;;;;;;8.00;6.00;;;;;22.81;46.38;101412.91;6333961;22;52501;-63
2022/07/11 06:06:59;;;;;;;;;6.00;6.00;;;;;22.62;46.78;101416.16;6333347;22;45291;-64
2022/07/11 06:09:25;;;;;;;;;5.00;5.00;;;;;22.44;46.82;101416.59;6334145;22;45300;-67
2022/07/11 06:11:50;;;;;;;;;4.75;3.75;;;;;22.30;47.28;101420.38;6335232;22;45261;-65
2022/07/11 06:14:16;;;;;;;;;5.50;5.50;;;;;22.19;47.93;101433.69;6308100;22;45338;-65
2022/07/11 06:16:41;;;;;;;;;7.50;5.75;;;;;22.03;48.12;101415.28;6336719;22;45247;-68
2022/07/11 06:19:07;;;;;;;;;4.00;4.00;;;;;21.98;48.16;101428.16;6336417;22;46396;-67
2022/07/11 06:21:33;;;;;;;;;6.75;6.00;;;;;21.81;48.50;101432.09;6341114;22;45249;-75
2022/07/11 06:23:59;;;;;;;;;7.00;7.00;;;;;21.64;49.06;101426.19;6336234;22;45281;-73
2022/07/11 06:26:24;;;;;;;;;7.00;7.00;;;;;21.56;48.96;101429.38;6336710;22;45394;-73
2022/07/11 06:28:50;;;;;;;;;5.00;5.00;;;;;21.49;49.26;101430.78;6335200;22;45294;-76
2022/07/11 06:31:16;;;;;;;;;6.00;6.00;;;;;21.47;49.56;101429.22;6336808;22;45153;-66
2022/07/11 06:33:42;;;;;;;;;6.50;6.50;;;;;21.44;49.77;101430.28;6338088;22;45132;-77
2022/07/11 06:36:07;;;;;;;;;7.25;6.50;;;;;21.44;49.69;101438.31;6308231;22;45291;-62
2022/07/11 06:38:33;;;;;;;;;9.00;6.00;;;;;21.41;49.60;101435.84;6336904;22;45841;-74
2022/07/11 06:40:59;;;;;;;;;9.75;8.00;;;;;21.44;50.10;101435.63;6336168;22;45432;-66
2022/07/11 06:43:24;;;;;;;;;7.00;6.00;;;;;21.42;50.11;101434.88;6335813;22;45338;-67
2022/07/11 06:45:50;;;;;;;;;7.00;7.00;;;;;21.35;50.26;101415.78;6306394;22;45485;-69
2022/07/11 06:48:16;;;;;;;;;7.00;7.00;;;;;21.43;50.35;101423.22;6335285;22;46084;-74
2022/07/11 06:50:42;;;;;;;;;7.25;6.00;;;;;21.46;50.49;101409.63;6333151;22;45639;-69
2022/07/11 06:53:08;;;;;;;;;6.00;6.00;;;;;21.38;50.19;101399.47;6305681;22;45195;-69
2022/07/11 06:55:33;;;;;;;;;8.00;6.25;;;;;21.49;49.94;101421.94;6334333;22;45245;-70
2022/07/11 06:58:00;;;;;;;;;5.00;5.00;;;;;21.50;50.05;101412.94;6333422;22;45975;-71
2022/07/11 07:00:27;;;;;;;;;6.50;5.50;;;;;21.54;49.79;101417.94;6333835;22;45218;-70
2022/07/11 07:02:54;;;;;;;;;7.25;7.00;;;;;21.61;50.10;101413.00;6333454;22;45446;-71
2022/07/11 07:05:20;;;;;;;;;9.50;6.75;;;;;21.73;49.97;101432.66;6333587;22;45400;-73
2022/07/11 07:07:45;;;;;;;;;6.25;6.00;;;;;21.78;49.84;101422.50;6333378;22;45673;-69
2022/07/11 07:10:11;;;;;;;;;9.25;7.75;;;;;21.84;49.71;101422.03;6333718;22;45284;-71
2022/07/11 07:12:39;;;;;;;;;6.50;5.50;;;;;21.91;49.48;101422.41;6333570;22;45480;-75
2022/07/11 07:15:05;;;;;;;;;4.00;4.00;;;;;21.93;49.04;101414.28;6335137;22;45416;-72
2022/07/11 07:17:31;;;;;;;;;8.25;7.25;;;;;22.08;49.36;101425.63;6334956;22;46189;-73
2022/07/11 07:19:56;;;;;;;;;3.25;3.25;;;;;22.13;48.55;101429.69;6334673;22;45230;-72
2022/07/11 07:22:22;;;;;;;;;11.00;8.75;;;;;22.22;48.50;101435.31;6334680;22;45314;-64
2022/07/11 07:24:47;;;;;;;;;15.25;15.25;;;;;22.30;48.68;101432.91;6334376;22;45432;-63
2022/07/11 07:27:12;;;;;;;;;5.75;5.75;;;;;22.35;48.79;101424.53;6305917;22;47074;-63
2022/07/11 07:29:38;;;;;;;;;6.50;6.00;;;;;22.48;48.15;101428.00;6333218;22;45570;-64
2022/07/11 07:32:04;;;;;;;;;6.75;6.75;;;;;22.58;47.84;101426.28;6334279;22;45380;-70
2022/07/11 07:34:30;;;;;;;;;7.25;7.25;;;;;22.60;47.57;101429.72;6334456;22;45343;-70
2022/07/11 07:36:55;;;;;;;;;3.50;3.50;;;;;22.61;47.43;101425.19;6336193;22;46003;-73
2022/07/11 07:39:20;;;;;;;;;4.00;4.00;;;;;22.64;47.30;101426.78;6335458;22;45263;-70
2022/07/11 07:41:46;;;;;;;;;4.25;4.25;;;;;22.69;47.50;101432.66;6335680;22;45245;-73
2022/07/11 07:44:11;;;;;;;;;15.25;13.75;;;;;22.78;47.65;101429.25;6335589;22;45298;-73
2022/07/11 07:46:37;;;;;;;;;6.25;6.25;;;;;22.90;47.68;101430.94;6335152;22;46804;-73
2022/07/11 07:49:02;;;;;;;;;4.25;4.25;;;;;22.96;46.91;101434.13;6334971;22;45252;-74
2022/07/11 07:51:28;;;;;;;;;11.25;11.00;;;;;22.94;47.02;101428.88;6335444;22;45263;-72
2022/07/11 07:53:54;;;;;;;;;4.00;4.00;;;;;22.96;46.67;101426.94;6335693;22;45338;-72
2022/07/11 07:56:20;;;;;;;;;5.50;5.50;;;;;22.98;47.03;101434.84;6335094;22;45187;-73
2022/07/11 07:58:45;;;;;;;;;6.25;4.75;;;;;23.01;46.77;101422.06;6335365;22;45134;-74
2022/07/11 08:03:54;;;;;;;;;6.50;4.75;;;;;23.12;46.78;101423.03;6335255;22;45314;-74
2022/07/11 08:06:20;;;;;;;;;5.25;4.00;;;;;23.19;46.01;101419.69;6306587;22;47465;-70
2022/07/11 08:08:46;;;;;;;;;7.75;5.25;;;;;23.23;46.57;101424.81;6334895;22;45440;-71
2022/07/11 08:11:11;;;;;;;;;3.50;3.50;;;;;23.27;46.16;101421.81;6335353;22;45199;-70
2022/07/11 08:13:37;;;;;;;;;5.75;5.00;;;;;23.39;46.37;101436.06;6336137;22;45349;-74
2022/07/11 08:16:04;;;;;;;;;6.50;5.00;;;;;23.39;45.96;101414.59;6334717;22;46091;-72
2022/07/11 08:18:29;;;;;;;;;5.00;5.00;;;;;23.53;45.89;101426.88;6335178;22;45365;-67
2022/07/11 08:20:56;;;;;;;;;9.75;9.75;;;;;23.56;46.02;101417.72;6336399;22;45364;-65
2022/07/11 08:23:21;;;;;;;;;4.50;4.50;;;;;23.54;44.78;101411.63;6335663;22;45944;-66
2022/07/11 08:25:47;;;;;;;;;6.25;6.25;;;;;23.61;45.40;101415.50;6334180;22;45403;-70
2022/07/11 08:28:12;;;;;;;;;2.25;2.25;;;;;23.62;45.39;101415.38;6335170;22;45429;-62
2022/07/11 08:30:37;;;;;;;;;5.00;5.00;;;;;23.66;45.13;101407.94;6335562;22;45249;-65
2022/07/11 08:33:03;;;;;;;;;2.75;2.75;;;;;23.64;45.22;101397.31;6334910;22;45499;-73
2022/07/11 08:35:28;;;;;;;;;3.00;3.00;;;;;23.77;44.87;101407.88;6335061;22;45212;-75
2022/07/11 08:37:54;;;;;;;;;3.50;3.50;;;;;23.79;44.92;101397.00;6335345;22;45260;-72
2022/07/11 08:40:20;;;;;;;;;5.50;4.75;;;;;23.78;44.56;101397.97;6335248;22;45265;-70
2022/07/11 08:42:45;;;;;;;;;7.75;6.25;;;;;23.87;44.47;101388.31;6307083;22;45301;-74
2022/07/11 08:45:16;;;;;;;;;5.50;4.25;;;;;24.00;44.56;101388.16;6306961;22;46824;-73
2022/07/11 08:47:43;;;;;;;;;3.00;3.00;;;;;24.09;43.98;101384.69;6307080;22;45263;-73
2022/07/11 08:50:12;;;;;;;;;6.00;4.25;;;;;24.19;44.67;101388.28;6335035;22;45273;-72
2022/07/11 08:52:38;;;;;;;;;3.50;3.50;;;;;24.27;43.69;101384.94;6335846;22;45200;-63
2022/07/11 08:55:07;;;;;;;;;6.25;4.00;;;;;24.33;43.88;101387.09;6336858;22;46643;-70
2022/07/11 08:57:38;;;;;;;;;5.75;5.50;;;;;24.40;44.08;101378.53;6336802;22;45272;-74
2022/07/11 09:00:07;;;;;;;;;5.50;4.50;;;;;24.55;44.26;101389.75;6336394;22;45211;-74
2022/07/11 09:02:33;;;;;;;;;5.25;4.00;;;;;24.67;43.87;101383.31;6336225;22;45460;-74
2022/07/11 09:05:00;;;;;;;;;3.50;3.50;;;;;24.76;43.68;101379.84;6306437;22;46226;-74
2022/07/11 09:07:26;;;;;;;;;4.00;4.00;;;;;24.86;43.38;101390.66;6335820;22;45191;-74
2022/07/11 09:09:52;;;;;;;;;4.75;3.50;;;;;24.91;43.06;101390.22;6307504;22;45253;-73
2022/07/11 09:12:17;;;;;;;;;4.25;2.75;;;;;24.93;43.37;101383.72;6336601;22;45345;-74
2022/07/11 09:14:51;;;;;;;;;4.50;4.50;;;;;24.98;42.78;101379.78;6337038;22;45532;-69
2022/07/11 09:17:27;;;;;;;;;5.00;5.00;;;;;25.04;42.60;101382.78;6337390;22;45207;-72
2022/07/11 09:19:53;;;;;;;;;4.00;3.00;;;;;25.09;42.50;101380.53;6335027;22;45237;-73
2022/07/11 09:25:31;;;;;;;;;8.25;8.25;;;;;25.05;43.14;101380.94;6335485;22;45768;-72
2022/07/11 09:28:07;;;;;;;;;8.00;7.50;;;;;25.12;42.71;101387.47;6335499;22;45316;-71
2022/07/11 09:30:39;;;;;;;;;11.25;11.00;;;;;25.19;43.19;101375.16;6334982;22;45391;-73
2022/07/11 09:33:09;;;;;;;;;4.00;4.00;;;;;25.30;42.33;101366.13;6335994;22;45127;-74
2022/07/11 09:35:42;;;;;;;;;5.00;5.00;;;;;25.28;42.46;101361.84;6334575;22;45353;-73
2022/07/11 09:38:16;;;;;;;;;4.50;4.50;;;;;25.33;42.43;101368.53;6333324;22;45206;-74
2022/07/11 09:40:46;;;;;;;;;4.50;4.50;;;;;25.44;42.33;101367.53;6335671;22;45214;-75
2022/07/11 09:43:12;;;;;;;;;6.50;6.00;;;;;25.51;41.88;101371.44;6307574;22;45292;-75
2022/07/11 09:45:37;;;;;;;;;6.50;6.50;;;;;25.57;42.15;101359.22;6335003;22;46375;-64
2022/07/11 09:48:10;;;;;;;;;7.00;5.25;;;;;25.67;41.85;101364.63;6335827;22;45289;-71
2022/07/11 09:50:39;;;;;;;;;4.50;4.50;;;;;25.75;41.93;101345.91;6335574;22;45351;-73
2022/07/11 09:53:08;;;;;;;;;7.25;6.00;;;;;25.92;41.23;101367.72;6335505;22;45145;-73
2022/07/11 09:55:39;;;;;;;;;4.00;3.00;;;;;25.94;41.35;101365.72;6334813;22;46057;-73
2022/07/11 09:58:09;;;;;;;;;4.75;4.00;;;;;26.02;40.86;101365.03;6334808;22;45170;-74
2022/07/11 10:00:37;;;;;;;;;2.25;2.25;;;;;26.02;41.33;101362.34;6334571;22;45340;-65
2022/07/11 10:03:03;;;;;;;;;6.25;3.00;;;;;26.04;41.35;101357.66;6335735;22;45402;-66
2022/07/11 10:05:30;;;;;;;;;3.75;2.75;;;;;26.16;40.96;101361.03;6335533;22;45519;-64
2022/07/11 10:07:57;;;;;;;;;8.25;7.00;;;;;26.17;40.67;101349.25;6334177;22;45204;-62
2022/07/11 10:10:23;;;;;;;;;2.00;2.00;;;;;26.25;40.65;101360.16;6334639;22;45204;-62
2022/07/11 10:12:51;;;;;;;;;5.00;4.00;;;;;26.31;40.63;101356.88;6334261;22;45368;-64
2022/07/11 10:15:22;;;;;;;;;4.00;2.00;;;;;26.38;40.32;101363.38;6333932;22;45931;-73
2022/07/11 10:18:05;;;;;;;;;3.50;3.50;;;;;26.24;39.74;101350.38;6334791;22;45108;-65
2022/07/11 10:20:53;;;;;;;;;2.00;2.00;;;;;26.29;39.94;101358.03;6335036;22;45187;-70
2022/07/11 10:23:27;;;;;;;;;2.25;2.25;;;;;26.35;39.86;101362.84;6334519;22;45363;-62
2022/07/11 10:26:04;;;;;;;;;3.75;3.75;;;;;26.38;39.69;101359.84;6334397;22;45324;-71
2022/07/11 10:28:35;;;;;;;;;4.00;4.00;;;;;26.38;39.89;101357.16;6334264;22;45324;-74
2022/07/11 10:31:01;;;;;;;;;2.25;2.25;;;;;26.39;39.08;101372.34;6334101;22;45157;-66
2022/07/11 10:33:28;;;;;;;;;6.25;5.25;;;;;26.38;39.74;101367.94;6334764;22;45162;-65
2022/07/11 10:35:54;;;;;;;;;6.00;6.00;;;;;26.42;39.78;101363.09;6333433;22;46469;-71
2022/07/11 10:38:21;;;;;;;;;3.50;3.50;;;;;26.51;39.50;101356.84;6334706;22;45354;-73
2022/07/11 10:40:55;;;;;;;;;3.25;3.25;;;;;26.62;39.45;101369.28;6334925;22;45360;-73
2022/07/11 10:43:29;;;;;;;;;4.00;2.50;;;;;26.63;39.21;101366.44;6334577;22;45356;-67
2022/07/11 10:46:00;;;;;;;;;2.00;1.75;;;;;26.72;38.95;101361.16;6335020;22;46718;-71
2022/07/11 10:48:27;;;;;;;;;1.50;1.50;;;;;26.84;38.60;101370.78;6333956;22;45270;-68
2022/07/11 10:51:01;;;;;;;;;4.25;4.00;;;;;26.89;38.39;101359.53;6335502;22;45359;-63
2022/07/11 10:53:31;;;;;;;;;3.75;3.75;;;;;27.00;38.55;101359.31;6336213;22;45336;-71
2022/07/11 10:56:44;;;;;;;;;7.75;7.75;;;;;27.04;38.37;101373.38;6335649;22;45931;-67
2022/07/11 10:59:14;;;;;;;;;18.75;17.25;;;;;27.10;38.96;101360.13;6307403;22;45557;-68
2022/07/11 11:02:17;;;;;;;;;3.00;3.00;;;;;27.18;38.52;101359.34;6335765;22;45344;-74
2022/07/11 11:04:48;;;;;;;;;6.25;5.00;;;;;27.33;38.52;101356.13;6336049;22;45289;-67
2022/07/11 11:07:41;;;;;;;;;2.25;2.25;;;;;27.48;37.88;101353.75;6334993;22;46055;-65
2022/07/11 11:10:29;;;;;;;;;2.75;2.75;;;;;27.53;37.69;101356.88;6330129;22;45530;-67
2022/07/11 11:13:04;;;;;;;;;3.00;3.00;;;;;27.61;37.85;101350.69;6307164;22;45361;-71
2022/07/11 11:15:49;;;;;;;;;3.00;2.00;;;;;27.66;37.47;101353.78;6335710;22;45533;-71
2022/07/11 11:18:26;;;;;;;;;3.00;3.00;;;;;27.69;37.40;101345.38;6335838;22;47048;-68
2022/07/11 11:20:57;;;;;;;;;4.25;4.00;;;;;27.76;36.83;101342.88;6335127;22;45353;-64
2022/07/11 11:23:24;;;;;;;;;4.00;2.50;;;;;27.66;37.46;101340.28;6307038;22;45238;-71
2022/07/11 11:25:50;;;;;;;;;3.25;3.25;;;;;27.64;37.48;101347.69;6336580;22;45434;-68
2022/07/11 11:28:20;;;;;;;;;4.25;4.25;;;;;27.71;37.44;101343.34;6335176;22;46053;-62
2022/07/11 11:30:57;;;;;;;;;3.25;3.25;;;;;27.78;37.13;101336.31;6335811;22;45265;-61